Greenwood, South Dakota
Current Conditions -  °F | °C
As of 9:35 PM on Friday 19 Dec 2014 (Local Time) from KYKN Reporting Station
Overcast Overcast  
Wind Chill: 26°   Ceiling: 1200
Heat Index: 32°   Visibility: 6mi
Dew Point: 28°   Wind: 7mph
Humidity: 87%   Direction: 190°S
Pressure: 30.08"   Gusts: NA
Location:  43.0908°N, 98.2525°W
Report Text: KYKN 200335Z AUTO 19006KT 6SM OVC012 00/M02 A3008 RMK AO1
Loading
Personal Weather Stations






























Interactive Weather Map New forecast layout! Learn more

10-Day Weather Forecast

Advertisements
Track Severe Weather on mobile